sensor_id;sensor_type;location;lat;lon;timestamp;P1;durP1;ratioP1;P2;durP2;ratioP2
74495;SDS011;62979;55.720;37.606;2023-01-15T00:01:17;11.93;;;6.35;;
74495;SDS011;62979;55.720;37.606;2023-01-15T00:03:49;14.80;;;6.97;;
74495;SDS011;62979;55.720;37.606;2023-01-15T00:06:17;15.43;;;5.70;;
74495;SDS011;62979;55.720;37.606;2023-01-15T00:08:46;13.30;;;4.85;;
74495;SDS011;62979;55.720;37.606;2023-01-15T00:11:13;10.52;;;5.78;;
74495;SDS011;62979;55.720;37.606;2023-01-15T00:13:41;10.38;;;5.18;;
74495;SDS011;62979;55.720;37.606;2023-01-15T00:16:09;7.88;;;4.38;;
74495;SDS011;62979;55.720;37.606;2023-01-15T00:18:38;9.60;;;5.43;;
74495;SDS011;62979;55.720;37.606;2023-01-15T00:21:08;13.82;;;6.13;;
74495;SDS011;62979;55.720;37.606;2023-01-15T00:23:38;8.88;;;4.63;;
74495;SDS011;62979;55.720;37.606;2023-01-15T00:26:26;4.28;;;2.05;;
74495;SDS011;62979;55.720;37.606;2023-01-15T00:29:12;7.25;;;4.20;;
74495;SDS011;62979;55.720;37.606;2023-01-15T00:31:40;10.32;;;5.10;;
74495;SDS011;62979;55.720;37.606;2023-01-15T00:34:07;6.32;;;3.40;;
74495;SDS011;62979;55.720;37.606;2023-01-15T00:36:36;11.65;;;5.50;;
74495;SDS011;62979;55.720;37.606;2023-01-15T00:39:04;14.45;;;6.95;;
74495;SDS011;62979;55.720;37.606;2023-01-15T00:41:31;12.57;;;5.60;;
74495;SDS011;62979;55.720;37.606;2023-01-15T00:50:43;11.15;;;5.40;;
74495;SDS011;62979;55.720;37.606;2023-01-15T00:53:12;9.63;;;5.28;;
74495;SDS011;62979;55.720;37.606;2023-01-15T00:55:39;13.38;;;5.93;;
74495;SDS011;62979;55.720;37.606;2023-01-15T00:58:05;13.48;;;5.03;;
74495;SDS011;62979;55.720;37.606;2023-01-15T01:00:33;11.13;;;5.60;;
74495;SDS011;62979;55.720;37.606;2023-01-15T01:02:59;10.02;;;5.30;;
74495;SDS011;62979;55.720;37.606;2023-01-15T01:05:26;14.50;;;5.28;;
74495;SDS011;62979;55.720;37.606;2023-01-15T01:07:53;15.15;;;7.03;;
74495;SDS011;62979;55.720;37.606;2023-01-15T01:10:21;9.23;;;5.18;;
74495;SDS011;62979;55.720;37.606;2023-01-15T01:12:48;13.88;;;5.88;;
74495;SDS011;62979;55.720;37.606;2023-01-15T01:15:16;12.02;;;5.68;;
74495;SDS011;62979;55.720;37.606;2023-01-15T01:17:43;8.30;;;4.43;;
74495;SDS011;62979;55.720;37.606;2023-01-15T01:20:11;10.82;;;6.22;;
74495;SDS011;62979;55.720;37.606;2023-01-15T01:22:40;13.15;;;4.90;;
74495;SDS011;62979;55.720;37.606;2023-01-15T01:25:08;11.07;;;5.78;;
74495;SDS011;62979;55.720;37.606;2023-01-15T01:27:37;13.70;;;5.80;;
74495;SDS011;62979;55.720;37.606;2023-01-15T01:30:04;11.32;;;5.47;;
74495;SDS011;62979;55.720;37.606;2023-01-15T01:32:32;11.02;;;6.53;;
74495;SDS011;62979;55.720;37.606;2023-01-15T01:34:59;9.68;;;5.43;;
74495;SDS011;62979;55.720;37.606;2023-01-15T01:37:26;10.82;;;5.05;;
74495;SDS011;62979;55.720;37.606;2023-01-15T01:39:53;12.77;;;4.25;;
74495;SDS011;62979;55.720;37.606;2023-01-15T01:42:21;10.40;;;4.57;;
74495;SDS011;62979;55.720;37.606;2023-01-15T01:45:04;16.92;;;5.63;;
74495;SDS011;62979;55.720;37.606;2023-01-15T01:47:48;11.93;;;4.43;;
74495;SDS011;62979;55.720;37.606;2023-01-15T01:50:17;12.23;;;6.32;;
74495;SDS011;62979;55.720;37.606;2023-01-15T01:52:46;11.75;;;5.25;;
74495;SDS011;62979;55.720;37.606;2023-01-15T01:55:22;8.82;;;4.28;;
74495;SDS011;62979;55.720;37.606;2023-01-15T01:57:52;15.15;;;5.60;;
74495;SDS011;62979;55.720;37.606;2023-01-15T02:00:26;7.95;;;4.10;;
74495;SDS011;62979;55.720;37.606;2023-01-15T02:02:55;15.35;;;6.25;;
74495;SDS011;62979;55.720;37.606;2023-01-15T02:05:26;11.07;;;4.05;;
74495;SDS011;62979;55.720;37.606;2023-01-15T02:07:58;8.73;;;4.88;;
74495;SDS011;62979;55.720;37.606;2023-01-15T02:10:26;14.98;;;6.53;;
74495;SDS011;62979;55.720;37.606;2023-01-15T02:12:54;12.85;;;5.25;;
74495;SDS011;62979;55.720;37.606;2023-01-15T02:15:31;17.98;;;6.13;;
74495;SDS011;62979;55.720;37.606;2023-01-15T02:18:05;13.18;;;4.88;;
74495;SDS011;62979;55.720;37.606;2023-01-15T02:20:44;13.63;;;6.88;;
74495;SDS011;62979;55.720;37.606;2023-01-15T02:29:26;14.45;;;4.38;;
74495;SDS011;62979;55.720;37.606;2023-01-15T02:32:05;14.00;;;5.22;;
74495;SDS011;62979;55.720;37.606;2023-01-15T02:34:41;11.43;;;4.70;;
74495;SDS011;62979;55.720;37.606;2023-01-15T02:37:17;13.90;;;5.85;;
74495;SDS011;62979;55.720;37.606;2023-01-15T02:39:51;10.20;;;4.85;;
74495;SDS011;62979;55.720;37.606;2023-01-15T02:42:23;9.05;;;2.88;;
74495;SDS011;62979;55.720;37.606;2023-01-15T02:44:53;13.50;;;4.65;;
74495;SDS011;62979;55.720;37.606;2023-01-15T02:47:26;8.73;;;4.00;;
74495;SDS011;62979;55.720;37.606;2023-01-15T02:50:00;11.15;;;5.15;;
74495;SDS011;62979;55.720;37.606;2023-01-15T02:52:33;13.60;;;5.80;;
74495;SDS011;62979;55.720;37.606;2023-01-15T02:55:07;14.82;;;5.80;;
74495;SDS011;62979;55.720;37.606;2023-01-15T02:57:42;9.63;;;4.72;;
74495;SDS011;62979;55.720;37.606;2023-01-15T03:00:14;8.60;;;5.22;;
74495;SDS011;62979;55.720;37.606;2023-01-15T03:02:46;11.65;;;5.63;;
74495;SDS011;62979;55.720;37.606;2023-01-15T03:05:25;13.23;;;5.40;;
74495;SDS011;62979;55.720;37.606;2023-01-15T03:07:59;11.75;;;4.85;;
74495;SDS011;62979;55.720;37.606;2023-01-15T03:10:34;6.18;;;3.15;;
74495;SDS011;62979;55.720;37.606;2023-01-15T03:13:14;14.52;;;5.30;;
74495;SDS011;62979;55.720;37.606;2023-01-15T03:15:52;13.23;;;6.05;;
74495;SDS011;62979;55.720;37.606;2023-01-15T03:18:55;16.08;;;6.47;;
74495;SDS011;62979;55.720;37.606;2023-01-15T03:21:35;14.82;;;6.53;;
74495;SDS011;62979;55.720;37.606;2023-01-15T03:24:14;10.43;;;5.85;;
74495;SDS011;62979;55.720;37.606;2023-01-15T03:26:51;14.80;;;5.85;;
74495;SDS011;62979;55.720;37.606;2023-01-15T03:29:20;11.05;;;5.13;;
74495;SDS011;62979;55.720;37.606;2023-01-15T03:31:52;10.75;;;5.25;;
74495;SDS011;62979;55.720;37.606;2023-01-15T03:34:19;11.60;;;4.82;;
74495;SDS011;62979;55.720;37.606;2023-01-15T03:36:46;11.45;;;5.30;;
74495;SDS011;62979;55.720;37.606;2023-01-15T03:39:13;15.75;;;6.50;;
74495;SDS011;62979;55.720;37.606;2023-01-15T03:41:43;16.20;;;6.00;;
74495;SDS011;62979;55.720;37.606;2023-01-15T03:44:31;10.93;;;5.30;;
74495;SDS011;62979;55.720;37.606;2023-01-15T03:47:09;11.65;;;5.40;;
74495;SDS011;62979;55.720;37.606;2023-01-15T03:49:54;10.48;;;4.60;;
74495;SDS011;62979;55.720;37.606;2023-01-15T03:52:29;15.10;;;7.30;;
74495;SDS011;62979;55.720;37.606;2023-01-15T03:55:07;14.73;;;5.40;;
74495;SDS011;62979;55.720;37.606;2023-01-15T03:57:40;14.25;;;7.00;;
74495;SDS011;62979;55.720;37.606;2023-01-15T04:00:17;13.50;;;5.55;;
74495;SDS011;62979;55.720;37.606;2023-01-15T04:02:51;14.80;;;6.50;;
74495;SDS011;62979;55.720;37.606;2023-01-15T04:05:22;16.67;;;5.63;;
74495;SDS011;62979;55.720;37.606;2023-01-15T04:07:53;15.40;;;6.25;;
74495;SDS011;62979;55.720;37.606;2023-01-15T04:10:23;19.40;;;6.20;;
74495;SDS011;62979;55.720;37.606;2023-01-15T04:12:51;16.83;;;5.78;;
74495;SDS011;62979;55.720;37.606;2023-01-15T04:15:19;15.90;;;6.18;;
74495;SDS011;62979;55.720;37.606;2023-01-15T04:17:46;16.77;;;5.28;;
74495;SDS011;62979;55.720;37.606;2023-01-15T04:20:13;14.55;;;7.00;;
74495;SDS011;62979;55.720;37.606;2023-01-15T04:22:40;9.52;;;5.15;;
74495;SDS011;62979;55.720;37.606;2023-01-15T04:25:07;12.35;;;5.68;;
74495;SDS011;62979;55.720;37.606;2023-01-15T04:30:02;14.02;;;6.93;;
74495;SDS011;62979;55.720;37.606;2023-01-15T04:32:31;14.05;;;6.95;;
74495;SDS011;62979;55.720;37.606;2023-01-15T04:34:58;18.35;;;6.03;;
74495;SDS011;62979;55.720;37.606;2023-01-15T04:37:24;10.48;;;5.68;;
74495;SDS011;62979;55.720;37.606;2023-01-15T04:39:51;15.80;;;6.10;;
74495;SDS011;62979;55.720;37.606;2023-01-15T04:42:18;11.85;;;6.03;;
74495;SDS011;62979;55.720;37.606;2023-01-15T04:45:03;13.85;;;5.47;;
74495;SDS011;62979;55.720;37.606;2023-01-15T04:47:32;13.18;;;5.65;;
74495;SDS011;62979;55.720;37.606;2023-01-15T04:49:59;13.98;;;5.68;;
74495;SDS011;62979;55.720;37.606;2023-01-15T04:52:26;10.73;;;3.40;;
74495;SDS011;62979;55.720;37.606;2023-01-15T04:54:53;13.20;;;5.10;;
74495;SDS011;62979;55.720;37.606;2023-01-15T04:57:20;16.48;;;5.18;;
74495;SDS011;62979;55.720;37.606;2023-01-15T04:59:47;15.48;;;5.78;;
74495;SDS011;62979;55.720;37.606;2023-01-15T05:02:15;16.95;;;6.18;;
74495;SDS011;62979;55.720;37.606;2023-01-15T05:04:43;13.95;;;6.03;;
74495;SDS011;62979;55.720;37.606;2023-01-15T05:07:10;14.90;;;6.47;;
74495;SDS011;62979;55.720;37.606;2023-01-15T05:09:37;14.05;;;6.55;;
74495;SDS011;62979;55.720;37.606;2023-01-15T05:12:04;17.30;;;6.68;;
74495;SDS011;62979;55.720;37.606;2023-01-15T05:14:31;14.45;;;6.07;;
74495;SDS011;62979;55.720;37.606;2023-01-15T05:16:58;13.98;;;6.80;;
74495;SDS011;62979;55.720;37.606;2023-01-15T05:19:25;21.33;;;5.80;;
74495;SDS011;62979;55.720;37.606;2023-01-15T05:21:53;13.77;;;7.00;;
74495;SDS011;62979;55.720;37.606;2023-01-15T05:24:20;14.43;;;6.03;;
74495;SDS011;62979;55.720;37.606;2023-01-15T05:26:48;19.80;;;6.53;;
74495;SDS011;62979;55.720;37.606;2023-01-15T05:29:15;15.05;;;5.80;;
74495;SDS011;62979;55.720;37.606;2023-01-15T05:31:42;14.05;;;6.18;;
74495;SDS011;62979;55.720;37.606;2023-01-15T05:34:10;15.13;;;6.93;;
74495;SDS011;62979;55.720;37.606;2023-01-15T05:36:38;10.07;;;5.55;;
74495;SDS011;62979;55.720;37.606;2023-01-15T05:39:07;14.45;;;5.70;;
74495;SDS011;62979;55.720;37.606;2023-01-15T05:44:17;21.40;;;7.38;;
74495;SDS011;62979;55.720;37.606;2023-01-15T05:46:48;14.15;;;5.38;;
74495;SDS011;62979;55.720;37.606;2023-01-15T05:49:17;19.40;;;7.22;;
74495;SDS011;62979;55.720;37.606;2023-01-15T05:51:46;18.15;;;7.35;;
74495;SDS011;62979;55.720;37.606;2023-01-15T05:54:15;21.08;;;6.18;;
74495;SDS011;62979;55.720;37.606;2023-01-15T05:56:45;15.30;;;6.57;;
74495;SDS011;62979;55.720;37.606;2023-01-15T05:59:13;15.65;;;5.18;;
74495;SDS011;62979;55.720;37.606;2023-01-15T06:01:42;12.18;;;4.75;;
74495;SDS011;62979;55.720;37.606;2023-01-15T06:04:09;18.88;;;6.00;;
74495;SDS011;62979;55.720;37.606;2023-01-15T06:06:39;15.07;;;6.88;;
74495;SDS011;62979;55.720;37.606;2023-01-15T06:09:06;20.27;;;5.78;;
74495;SDS011;62979;55.720;37.606;2023-01-15T06:11:35;12.50;;;4.47;;
74495;SDS011;62979;55.720;37.606;2023-01-15T06:16:29;15.32;;;6.72;;
74495;SDS011;62979;55.720;37.606;2023-01-15T06:18:58;15.30;;;6.00;;
74495;SDS011;62979;55.720;37.606;2023-01-15T06:21:28;11.05;;;5.97;;
74495;SDS011;62979;55.720;37.606;2023-01-15T06:23:55;17.40;;;5.80;;
74495;SDS011;62979;55.720;37.606;2023-01-15T06:26:22;16.23;;;6.20;;
74495;SDS011;62979;55.720;37.606;2023-01-15T06:28:51;14.27;;;6.82;;
74495;SDS011;62979;55.720;37.606;2023-01-15T06:31:19;17.95;;;6.03;;
74495;SDS011;62979;55.720;37.606;2023-01-15T06:33:50;18.30;;;5.75;;
74495;SDS011;62979;55.720;37.606;2023-01-15T06:36:18;17.65;;;5.15;;
74495;SDS011;62979;55.720;37.606;2023-01-15T06:38:48;12.02;;;4.45;;
74495;SDS011;62979;55.720;37.606;2023-01-15T06:41:16;19.20;;;7.05;;
74495;SDS011;62979;55.720;37.606;2023-01-15T06:44:04;16.02;;;7.45;;
74495;SDS011;62979;55.720;37.606;2023-01-15T06:46:49;22.20;;;6.43;;
74495;SDS011;62979;55.720;37.606;2023-01-15T06:49:35;17.83;;;7.03;;
74495;SDS011;62979;55.720;37.606;2023-01-15T06:52:03;11.80;;;6.10;;
74495;SDS011;62979;55.720;37.606;2023-01-15T06:54:31;14.05;;;5.85;;
74495;SDS011;62979;55.720;37.606;2023-01-15T06:56:59;21.40;;;6.88;;
74495;SDS011;62979;55.720;37.606;2023-01-15T06:59:27;22.73;;;6.90;;
74495;SDS011;62979;55.720;37.606;2023-01-15T07:01:54;14.50;;;5.00;;
74495;SDS011;62979;55.720;37.606;2023-01-15T07:04:21;16.83;;;7.35;;
74495;SDS011;62979;55.720;37.606;2023-01-15T07:06:48;17.83;;;5.72;;
74495;SDS011;62979;55.720;37.606;2023-01-15T07:09:15;17.00;;;7.22;;
74495;SDS011;62979;55.720;37.606;2023-01-15T07:11:42;16.38;;;5.45;;
74495;SDS011;62979;55.720;37.606;2023-01-15T07:14:14;23.77;;;5.80;;
74495;SDS011;62979;55.720;37.606;2023-01-15T07:16:44;17.48;;;6.05;;
74495;SDS011;62979;55.720;37.606;2023-01-15T07:19:11;20.98;;;6.45;;
74495;SDS011;62979;55.720;37.606;2023-01-15T07:21:39;17.60;;;7.80;;
74495;SDS011;62979;55.720;37.606;2023-01-15T07:24:06;19.30;;;6.90;;
74495;SDS011;62979;55.720;37.606;2023-01-15T07:26:34;18.17;;;7.05;;
74495;SDS011;62979;55.720;37.606;2023-01-15T07:29:02;17.75;;;7.47;;
74495;SDS011;62979;55.720;37.606;2023-01-15T07:31:29;14.73;;;6.57;;
74495;SDS011;62979;55.720;37.606;2023-01-15T07:33:58;20.63;;;7.15;;
74495;SDS011;62979;55.720;37.606;2023-01-15T07:36:25;19.63;;;6.72;;
74495;SDS011;62979;55.720;37.606;2023-01-15T07:38:52;18.65;;;7.95;;
74495;SDS011;62979;55.720;37.606;2023-01-15T07:41:19;19.60;;;7.10;;
74495;SDS011;62979;55.720;37.606;2023-01-15T07:44:03;16.65;;;6.75;;
74495;SDS011;62979;55.720;37.606;2023-01-15T07:46:47;16.05;;;7.95;;
74495;SDS011;62979;55.720;37.606;2023-01-15T07:49:33;7.70;;;4.10;;
74495;SDS011;62979;55.720;37.606;2023-01-15T07:52:13;19.88;;;8.73;;
74495;SDS011;62979;55.720;37.606;2023-01-15T07:54:42;15.80;;;6.45;;
74495;SDS011;62979;55.720;37.606;2023-01-15T07:57:09;16.23;;;6.90;;
74495;SDS011;62979;55.720;37.606;2023-01-15T07:59:38;20.15;;;8.32;;
74495;SDS011;62979;55.720;37.606;2023-01-15T08:02:05;11.20;;;5.45;;
74495;SDS011;62979;55.720;37.606;2023-01-15T08:04:34;17.25;;;6.85;;
74495;SDS011;62979;55.720;37.606;2023-01-15T08:07:02;25.77;;;9.40;;
74495;SDS011;62979;55.720;37.606;2023-01-15T08:09:30;23.77;;;8.20;;
74495;SDS011;62979;55.720;37.606;2023-01-15T08:11:57;13.93;;;7.07;;
74495;SDS011;62979;55.720;37.606;2023-01-15T08:14:43;22.42;;;8.77;;
74495;SDS011;62979;55.720;37.606;2023-01-15T08:17:28;14.07;;;6.63;;
74495;SDS011;62979;55.720;37.606;2023-01-15T08:19:56;14.80;;;7.15;;
74495;SDS011;62979;55.720;37.606;2023-01-15T08:22:24;14.38;;;6.60;;
74495;SDS011;62979;55.720;37.606;2023-01-15T08:24:50;15.63;;;7.20;;
74495;SDS011;62979;55.720;37.606;2023-01-15T08:27:17;18.40;;;8.48;;
74495;SDS011;62979;55.720;37.606;2023-01-15T08:29:44;18.60;;;7.35;;
74495;SDS011;62979;55.720;37.606;2023-01-15T08:32:11;18.05;;;7.90;;
74495;SDS011;62979;55.720;37.606;2023-01-15T08:34:38;13.80;;;7.20;;
74495;SDS011;62979;55.720;37.606;2023-01-15T08:37:06;19.63;;;5.97;;
74495;SDS011;62979;55.720;37.606;2023-01-15T08:42:00;15.68;;;5.47;;
74495;SDS011;62979;55.720;37.606;2023-01-15T08:44:27;17.25;;;8.27;;
74495;SDS011;62979;55.720;37.606;2023-01-15T08:46:54;12.63;;;8.45;;
74495;SDS011;62979;55.720;37.606;2023-01-15T08:49:21;13.68;;;6.35;;
74495;SDS011;62979;55.720;37.606;2023-01-15T08:51:48;15.60;;;7.43;;
74495;SDS011;62979;55.720;37.606;2023-01-15T08:54:17;8.88;;;4.63;;
74495;SDS011;62979;55.720;37.606;2023-01-15T08:56:46;17.42;;;6.97;;
74495;SDS011;62979;55.720;37.606;2023-01-15T08:59:14;12.30;;;6.85;;
74495;SDS011;62979;55.720;37.606;2023-01-15T09:01:43;16.98;;;6.97;;
74495;SDS011;62979;55.720;37.606;2023-01-15T09:04:12;12.32;;;7.28;;
74495;SDS011;62979;55.720;37.606;2023-01-15T09:06:40;18.45;;;6.68;;
74495;SDS011;62979;55.720;37.606;2023-01-15T09:09:07;14.30;;;7.07;;
74495;SDS011;62979;55.720;37.606;2023-01-15T09:11:37;11.75;;;6.53;;
74495;SDS011;62979;55.720;37.606;2023-01-15T09:14:05;21.40;;;7.38;;
74495;SDS011;62979;55.720;37.606;2023-01-15T09:16:32;14.20;;;6.18;;
74495;SDS011;62979;55.720;37.606;2023-01-15T09:18:59;16.80;;;9.43;;
74495;SDS011;62979;55.720;37.606;2023-01-15T09:21:26;15.20;;;5.95;;
74495;SDS011;62979;55.720;37.606;2023-01-15T09:23:53;18.98;;;7.43;;
74495;SDS011;62979;55.720;37.606;2023-01-15T09:26:24;16.35;;;7.20;;
74495;SDS011;62979;55.720;37.606;2023-01-15T09:28:57;16.55;;;8.38;;
74495;SDS011;62979;55.720;37.606;2023-01-15T09:31:25;12.30;;;6.70;;
74495;SDS011;62979;55.720;37.606;2023-01-15T09:33:52;17.05;;;7.47;;
74495;SDS011;62979;55.720;37.606;2023-01-15T09:36:21;15.15;;;6.78;;
74495;SDS011;62979;55.720;37.606;2023-01-15T09:38:53;20.10;;;7.82;;
74495;SDS011;62979;55.720;37.606;2023-01-15T09:41:20;18.02;;;6.95;;
74495;SDS011;62979;55.720;37.606;2023-01-15T09:44:11;16.73;;;7.28;;
74495;SDS011;62979;55.720;37.606;2023-01-15T09:46:56;16.60;;;8.50;;
74495;SDS011;62979;55.720;37.606;2023-01-15T09:49:50;14.30;;;8.10;;
74495;SDS011;62979;55.720;37.606;2023-01-15T09:52:48;15.68;;;6.68;;
74495;SDS011;62979;55.720;37.606;2023-01-15T09:55:31;11.40;;;5.60;;
74495;SDS011;62979;55.720;37.606;2023-01-15T09:58:08;15.45;;;6.53;;
74495;SDS011;62979;55.720;37.606;2023-01-15T10:00:42;13.80;;;5.63;;
74495;SDS011;62979;55.720;37.606;2023-01-15T10:03:17;12.88;;;8.05;;
74495;SDS011;62979;55.720;37.606;2023-01-15T10:05:55;14.23;;;6.68;;
74495;SDS011;62979;55.720;37.606;2023-01-15T10:08:35;21.23;;;8.88;;
74495;SDS011;62979;55.720;37.606;2023-01-15T10:11:15;16.25;;;7.72;;
74495;SDS011;62979;55.720;37.606;2023-01-15T10:14:19;14.98;;;6.28;;
74495;SDS011;62979;55.720;37.606;2023-01-15T10:17:05;15.52;;;7.13;;
74495;SDS011;62979;55.720;37.606;2023-01-15T10:19:50;10.70;;;5.82;;
74495;SDS011;62979;55.720;37.606;2023-01-15T10:22:24;10.20;;;5.93;;
74495;SDS011;62979;55.720;37.606;2023-01-15T10:25:24;20.45;;;7.57;;
74495;SDS011;62979;55.720;37.606;2023-01-15T10:28:01;13.98;;;6.35;;
74495;SDS011;62979;55.720;37.606;2023-01-15T10:30:43;15.13;;;5.90;;
74495;SDS011;62979;55.720;37.606;2023-01-15T10:33:26;11.30;;;4.07;;
74495;SDS011;62979;55.720;37.606;2023-01-15T10:36:16;16.63;;;6.75;;
74495;SDS011;62979;55.720;37.606;2023-01-15T10:38:51;9.25;;;4.75;;
74495;SDS011;62979;55.720;37.606;2023-01-15T10:41:32;11.50;;;6.22;;
74495;SDS011;62979;55.720;37.606;2023-01-15T10:44:16;14.45;;;5.60;;
74495;SDS011;62979;55.720;37.606;2023-01-15T10:46:54;11.20;;;6.60;;
74495;SDS011;62979;55.720;37.606;2023-01-15T10:49:28;15.60;;;6.47;;
74495;SDS011;62979;55.720;37.606;2023-01-15T10:51:57;10.57;;;5.95;;
74495;SDS011;62979;55.720;37.606;2023-01-15T10:54:32;20.48;;;6.50;;
74495;SDS011;62979;55.720;37.606;2023-01-15T10:57:06;12.38;;;6.03;;
74495;SDS011;62979;55.720;37.606;2023-01-15T10:59:41;14.10;;;6.65;;
74495;SDS011;62979;55.720;37.606;2023-01-15T11:02:20;9.55;;;5.63;;
74495;SDS011;62979;55.720;37.606;2023-01-15T11:04:56;11.25;;;5.57;;
74495;SDS011;62979;55.720;37.606;2023-01-15T11:07:25;12.25;;;5.43;;
74495;SDS011;62979;55.720;37.606;2023-01-15T11:10:04;12.48;;;5.53;;
74495;SDS011;62979;55.720;37.606;2023-01-15T11:12:36;14.73;;;6.60;;
74495;SDS011;62979;55.720;37.606;2023-01-15T11:15:23;15.68;;;6.20;;
74495;SDS011;62979;55.720;37.606;2023-01-15T11:18:11;11.75;;;5.68;;
74495;SDS011;62979;55.720;37.606;2023-01-15T11:21:11;16.08;;;6.28;;
74495;SDS011;62979;55.720;37.606;2023-01-15T11:23:43;16.67;;;5.88;;
74495;SDS011;62979;55.720;37.606;2023-01-15T11:26:15;17.52;;;6.05;;
74495;SDS011;62979;55.720;37.606;2023-01-15T11:28:46;11.02;;;5.88;;
74495;SDS011;62979;55.720;37.606;2023-01-15T11:31:15;11.15;;;5.38;;
74495;SDS011;62979;55.720;37.606;2023-01-15T11:33:43;18.05;;;5.78;;
74495;SDS011;62979;55.720;37.606;2023-01-15T11:36:22;11.73;;;5.13;;
74495;SDS011;62979;55.720;37.606;2023-01-15T11:38:51;16.77;;;6.25;;
74495;SDS011;62979;55.720;37.606;2023-01-15T11:41:19;6.85;;;2.90;;
74495;SDS011;62979;55.720;37.606;2023-01-15T11:44:12;11.90;;;5.05;;
74495;SDS011;62979;55.720;37.606;2023-01-15T11:46:58;11.00;;;5.65;;
74495;SDS011;62979;55.720;37.606;2023-01-15T11:49:48;14.15;;;5.55;;
74495;SDS011;62979;55.720;37.606;2023-01-15T11:52:35;8.23;;;4.13;;
74495;SDS011;62979;55.720;37.606;2023-01-15T11:55:09;11.32;;;4.70;;
74495;SDS011;62979;55.720;37.606;2023-01-15T11:57:39;12.10;;;4.65;;
74495;SDS011;62979;55.720;37.606;2023-01-15T12:00:14;12.10;;;5.05;;
74495;SDS011;62979;55.720;37.606;2023-01-15T12:02:47;8.45;;;3.42;;
74495;SDS011;62979;55.720;37.606;2023-01-15T12:05:20;11.45;;;5.32;;
74495;SDS011;62979;55.720;37.606;2023-01-15T12:07:52;9.80;;;4.80;;
74495;SDS011;62979;55.720;37.606;2023-01-15T12:10:23;8.07;;;4.68;;
74495;SDS011;62979;55.720;37.606;2023-01-15T12:13:14;17.73;;;4.57;;
74495;SDS011;62979;55.720;37.606;2023-01-15T12:15:55;9.43;;;6.13;;
74495;SDS011;62979;55.720;37.606;2023-01-15T12:18:49;10.63;;;5.00;;
74495;SDS011;62979;55.720;37.606;2023-01-15T12:21:24;6.85;;;3.65;;
74495;SDS011;62979;55.720;37.606;2023-01-15T12:24:43;7.75;;;3.90;;
74495;SDS011;62979;55.720;37.606;2023-01-15T12:27:44;8.77;;;4.15;;
74495;SDS011;62979;55.720;37.606;2023-01-15T12:32:57;10.60;;;4.82;;
74495;SDS011;62979;55.720;37.606;2023-01-15T12:35:39;7.82;;;3.97;;
74495;SDS011;62979;55.720;37.606;2023-01-15T12:38:14;8.90;;;3.47;;
74495;SDS011;62979;55.720;37.606;2023-01-15T12:40:53;6.97;;;3.50;;
74495;SDS011;62979;55.720;37.606;2023-01-15T12:43:27;7.97;;;4.10;;
74495;SDS011;62979;55.720;37.606;2023-01-15T12:46:13;9.10;;;3.45;;
74495;SDS011;62979;55.720;37.606;2023-01-15T12:51:20;7.20;;;2.90;;
74495;SDS011;62979;55.720;37.606;2023-01-15T12:53:54;8.30;;;3.63;;
74495;SDS011;62979;55.720;37.606;2023-01-15T12:56:32;7.18;;;2.85;;
74495;SDS011;62979;55.720;37.606;2023-01-15T12:59:13;11.45;;;3.38;;
74495;SDS011;62979;55.720;37.606;2023-01-15T13:01:51;12.98;;;4.07;;
74495;SDS011;62979;55.720;37.606;2023-01-15T13:04:36;8.40;;;4.07;;
74495;SDS011;62979;55.720;37.606;2023-01-15T13:07:14;9.55;;;3.40;;
74495;SDS011;62979;55.720;37.606;2023-01-15T13:09:52;8.60;;;2.80;;
74495;SDS011;62979;55.720;37.606;2023-01-15T13:12:33;7.78;;;2.95;;
74495;SDS011;62979;55.720;37.606;2023-01-15T13:15:00;10.77;;;5.80;;
74495;SDS011;62979;55.720;37.606;2023-01-15T13:17:30;9.35;;;3.35;;
74495;SDS011;62979;55.720;37.606;2023-01-15T13:20:13;7.85;;;2.55;;
74495;SDS011;62979;55.720;37.606;2023-01-15T13:23:06;10.50;;;3.75;;
74495;SDS011;62979;55.720;37.606;2023-01-15T13:25:49;9.77;;;3.33;;
74495;SDS011;62979;55.720;37.606;2023-01-15T13:28:46;9.63;;;3.38;;
74495;SDS011;62979;55.720;37.606;2023-01-15T13:31:32;8.07;;;2.67;;
74495;SDS011;62979;55.720;37.606;2023-01-15T13:34:15;7.15;;;2.58;;
74495;SDS011;62979;55.720;37.606;2023-01-15T13:36:52;8.23;;;2.55;;
74495;SDS011;62979;55.720;37.606;2023-01-15T13:39:27;8.25;;;2.30;;
74495;SDS011;62979;55.720;37.606;2023-01-15T13:42:10;10.88;;;3.70;;
74495;SDS011;62979;55.720;37.606;2023-01-15T13:45:00;10.93;;;3.50;;
74495;SDS011;62979;55.720;37.606;2023-01-15T13:47:33;5.22;;;2.40;;
74495;SDS011;62979;55.720;37.606;2023-01-15T13:50:12;10.82;;;2.85;;
74495;SDS011;62979;55.720;37.606;2023-01-15T13:52:41;5.20;;;2.75;;
74495;SDS011;62979;55.720;37.606;2023-01-15T13:55:15;7.60;;;2.70;;
74495;SDS011;62979;55.720;37.606;2023-01-15T13:57:51;8.82;;;3.00;;
74495;SDS011;62979;55.720;37.606;2023-01-15T14:00:28;14.48;;;2.85;;
74495;SDS011;62979;55.720;37.606;2023-01-15T14:02:59;8.77;;;3.90;;
74495;SDS011;62979;55.720;37.606;2023-01-15T14:05:29;14.27;;;4.70;;
74495;SDS011;62979;55.720;37.606;2023-01-15T14:07:59;9.80;;;3.70;;
74495;SDS011;62979;55.720;37.606;2023-01-15T14:10:35;9.57;;;3.17;;
74495;SDS011;62979;55.720;37.606;2023-01-15T14:16:16;7.55;;;3.75;;
74495;SDS011;62979;55.720;37.606;2023-01-15T14:19:05;5.15;;;4.10;;
74495;SDS011;62979;55.720;37.606;2023-01-15T14:21:58;11.02;;;5.68;;
74495;SDS011;62979;55.720;37.606;2023-01-15T14:24:51;6.35;;;3.33;;
74495;SDS011;62979;55.720;37.606;2023-01-15T14:27:41;9.73;;;4.90;;
74495;SDS011;62979;55.720;37.606;2023-01-15T14:30:32;6.85;;;3.95;;
74495;SDS011;62979;55.720;37.606;2023-01-15T14:33:41;13.18;;;4.15;;
74495;SDS011;62979;55.720;37.606;2023-01-15T14:36:32;11.93;;;3.97;;
74495;SDS011;62979;55.720;37.606;2023-01-15T14:39:07;9.63;;;4.13;;
74495;SDS011;62979;55.720;37.606;2023-01-15T14:41:57;8.30;;;2.40;;
74495;SDS011;62979;55.720;37.606;2023-01-15T14:44:54;9.18;;;3.80;;
74495;SDS011;62979;55.720;37.606;2023-01-15T14:47:26;9.60;;;5.57;;
74495;SDS011;62979;55.720;37.606;2023-01-15T14:53:15;10.75;;;4.55;;
74495;SDS011;62979;55.720;37.606;2023-01-15T14:55:54;13.40;;;4.45;;
74495;SDS011;62979;55.720;37.606;2023-01-15T14:58:33;9.68;;;4.05;;
74495;SDS011;62979;55.720;37.606;2023-01-15T15:01:17;8.93;;;3.85;;
74495;SDS011;62979;55.720;37.606;2023-01-15T15:03:58;12.70;;;5.57;;
74495;SDS011;62979;55.720;37.606;2023-01-15T15:06:40;8.50;;;4.18;;
74495;SDS011;62979;55.720;37.606;2023-01-15T15:09:18;11.10;;;4.45;;
74495;SDS011;62979;55.720;37.606;2023-01-15T15:12:02;10.23;;;3.80;;
74495;SDS011;62979;55.720;37.606;2023-01-15T15:14:46;9.57;;;4.25;;
74495;SDS011;62979;55.720;37.606;2023-01-15T15:17:29;12.38;;;5.40;;
74495;SDS011;62979;55.720;37.606;2023-01-15T15:20:16;8.07;;;3.70;;
74495;SDS011;62979;55.720;37.606;2023-01-15T15:22:52;15.98;;;4.40;;
74495;SDS011;62979;55.720;37.606;2023-01-15T15:25:26;9.50;;;4.20;;
74495;SDS011;62979;55.720;37.606;2023-01-15T15:28:01;9.70;;;3.75;;
74495;SDS011;62979;55.720;37.606;2023-01-15T15:30:30;7.10;;;3.88;;
74495;SDS011;62979;55.720;37.606;2023-01-15T15:33:02;13.50;;;4.95;;
74495;SDS011;62979;55.720;37.606;2023-01-15T15:35:31;8.93;;;5.32;;
74495;SDS011;62979;55.720;37.606;2023-01-15T15:38:02;9.55;;;5.13;;